Time;durP1;ratioP1;P1;durP2;ratioP2;P2;SDS_P1;SDS_P2;PMS_P1;PMS_P2;Temp;Humidity;BMP_temperature;BMP_pressure;BME280_temperature;BME280_humidity;BME280_pressure;Samples;Min_cycle;Max_cycle;Signal;HPM_P1;HPM_P2
2020/12/09 00:01:31;;;;;;;39.60;17.57;;;1.40;99.90;;;;;;5010123;28;20742;-63
2020/12/09 00:04:00;;;;;;;34.60;16.70;;;1.40;99.90;;;;;;5018980;28;20427;-66
2020/12/09 00:06:25;;;;;;;40.30;18.13;;;1.40;99.90;;;;;;5010655;28;20431;-61
2020/12/09 00:08:51;;;;;;;44.10;18.13;;;1.40;99.90;;;;;;4996024;28;20464;-61
2020/12/09 00:11:17;;;;;;;45.13;18.43;;;1.40;99.90;;;;;;4990077;28;20301;-61
2020/12/09 00:13:43;;;;;;;45.43;18.23;;;1.40;99.90;;;;;;5007599;28;20341;-61
2020/12/09 00:16:09;;;;;;;41.20;18.33;;;1.40;99.90;;;;;;5007848;28;20195;-62
2020/12/09 00:18:34;;;;;;;46.00;19.60;;;1.40;99.90;;;;;;5029178;28;20432;-62
2020/12/09 00:21:03;;;;;;;42.37;17.47;;;1.40;99.90;;;;;;5007685;28;20583;-61
2020/12/09 00:23:29;;;;;;;36.47;17.20;;;1.40;99.90;;;;;;5004070;28;20214;-69
2020/12/09 00:25:55;;;;;;;45.27;19.03;;;1.40;99.90;;;;;;5005443;28;20437;-61
2020/12/09 00:28:20;;;;;;;39.43;17.23;;;1.40;99.90;;;;;;5010073;28;20433;-61
2020/12/09 00:30:46;;;;;;;44.40;19.50;;;1.40;99.90;;;;;;5007357;28;20216;-62
2020/12/09 00:33:12;;;;;;;41.70;18.80;;;1.50;99.90;;;;;;5000299;28;20198;-61
2020/12/09 00:35:39;;;;;;;37.80;15.93;;;1.50;99.90;;;;;;5001318;28;20220;-61
2020/12/09 00:38:09;;;;;;;41.47;18.40;;;1.50;99.90;;;;;;5020925;28;20182;-61
2020/12/09 00:40:35;;;;;;;50.43;20.30;;;1.50;99.90;;;;;;4997379;28;21013;-62
2020/12/09 00:43:02;;;;;;;40.63;18.10;;;1.50;99.90;;;;;;5003422;28;20533;-62
2020/12/09 00:45:28;;;;;;;37.80;17.77;;;1.50;99.90;;;;;;5012372;28;20417;-61
2020/12/09 00:47:53;;;;;;;36.53;16.30;;;1.50;99.90;;;;;;5001263;28;20426;-62
2020/12/09 00:52:45;;;;;;;49.13;19.50;;;1.50;99.90;;;;;;5029521;28;20192;-61
2020/12/09 00:55:10;;;;;;;38.67;15.87;;;1.50;99.90;;;;;;5007048;28;20222;-60
2020/12/09 00:57:37;;;;;;;41.00;17.77;;;1.50;99.90;;;;;;5012122;28;20185;-59
2020/12/09 01:00:09;;;;;;;37.97;17.67;;;1.50;99.90;;;;;;5002910;28;20195;-61
2020/12/09 01:02:35;;;;;;;38.80;17.17;;;1.50;99.90;;;;;;5016289;28;20445;-60
2020/12/09 01:05:01;;;;;;;44.83;17.57;;;1.50;99.90;;;;;;5026415;28;21016;-63
2020/12/09 01:07:27;;;;;;;42.90;17.33;;;1.50;99.90;;;;;;5015107;28;20463;-62
2020/12/09 01:09:53;;;;;;;39.50;18.17;;;1.50;99.90;;;;;;5054824;28;20464;-62
2020/12/09 01:12:19;;;;;;;48.17;18.13;;;1.50;99.90;;;;;;5031278;28;20202;-62
2020/12/09 01:14:45;;;;;;;40.13;16.60;;;1.50;99.90;;;;;;5007212;28;20568;-61
2020/12/09 01:17:10;;;;;;;35.83;17.43;;;1.50;99.90;;;;;;5012453;28;20457;-61
2020/12/09 01:19:36;;;;;;;46.10;19.50;;;1.50;99.90;;;;;;5011339;28;20193;-60
2020/12/09 01:22:05;;;;;;;40.70;16.90;;;1.50;99.90;;;;;;5006807;28;20222;-60
2020/12/09 01:24:32;;;;;;;46.37;18.43;;;1.50;99.90;;;;;;5009358;28;20194;-60
2020/12/09 01:26:58;;;;;;;42.67;18.60;;;1.50;99.90;;;;;;5009875;28;20526;-61
2020/12/09 01:29:23;;;;;;;46.67;19.10;;;1.60;99.90;;;;;;5011505;28;20424;-60
2020/12/09 01:31:59;;;;;;;40.67;18.73;;;1.60;99.90;;;;;;5010872;28;20214;-60
2020/12/09 01:34:34;;;;;;;42.40;16.37;;;1.60;99.90;;;;;;5029142;28;20202;-60
2020/12/09 01:37:17;;;;;;;37.23;15.80;;;1.60;99.90;;;;;;5026043;28;20985;-61
2020/12/09 01:39:42;;;;;;;43.23;17.53;;;1.60;99.90;;;;;;5015034;28;20451;-62
2020/12/09 01:42:08;;;;;;;36.70;15.53;;;1.60;99.90;;;;;;5009432;28;20210;-60
2020/12/09 01:44:34;;;;;;;45.33;19.77;;;1.70;99.90;;;;;;5015530;28;20200;-60
2020/12/09 01:47:04;;;;;;;39.60;17.43;;;1.70;99.90;;;;;;4997210;28;20277;-61
2020/12/09 01:49:32;;;;;;;46.97;19.27;;;1.60;99.90;;;;;;5011286;28;20184;-61
2020/12/09 01:52:03;;;;;;;35.73;17.30;;;1.60;99.90;;;;;;5015913;28;20851;-60
2020/12/09 01:54:32;;;;;;;41.23;16.83;;;1.60;99.90;;;;;;5014042;28;20511;-60
2020/12/09 01:57:07;;;;;;;41.87;17.33;;;1.60;99.90;;;;;;5007733;28;20864;-60
2020/12/09 01:59:40;;;;;;;33.90;14.17;;;1.60;99.90;;;;;;5029401;28;20812;-60
2020/12/09 02:02:08;;;;;;;42.13;17.97;;;1.60;99.90;;;;;;5020263;28;20480;-61
2020/12/09 02:04:35;;;;;;;34.90;14.33;;;1.60;99.90;;;;;;5021429;28;20504;-61
2020/12/09 02:07:01;;;;;;;26.37;13.37;;;1.60;99.90;;;;;;5014377;28;20545;-61
2020/12/09 02:09:27;;;;;;;29.80;14.87;;;1.60;99.90;;;;;;5002734;28;20490;-60
2020/12/09 02:11:54;;;;;;;33.27;14.70;;;1.60;99.90;;;;;;5006618;28;20467;-61
2020/12/09 02:14:20;;;;;;;27.87;12.30;;;1.60;99.90;;;;;;5015000;28;20413;-60
2020/12/09 02:16:54;;;;;;;30.37;13.40;;;1.60;99.90;;;;;;4999977;28;20461;-61
2020/12/09 02:19:25;;;;;;;28.30;12.40;;;1.60;99.90;;;;;;5023030;28;20941;-61
2020/12/09 02:21:51;;;;;;;25.33;12.70;;;1.70;99.90;;;;;;5013597;28;20467;-61
2020/12/09 02:24:17;;;;;;;22.20;10.80;;;1.70;99.90;;;;;;5020230;28;20457;-61
2020/12/09 02:26:45;;;;;;;20.03;10.50;;;1.70;99.90;;;;;;5027824;28;20958;-61
2020/12/09 02:29:11;;;;;;;22.70;10.50;;;1.70;99.90;;;;;;5009730;28;20489;-61
2020/12/09 02:31:38;;;;;;;20.20;11.03;;;1.70;99.90;;;;;;5010891;28;20495;-61
2020/12/09 02:34:04;;;;;;;24.63;10.67;;;1.70;99.90;;;;;;5018718;28;20443;-61
2020/12/09 02:36:30;;;;;;;24.80;11.67;;;1.80;99.90;;;;;;5034906;28;20452;-61
2020/12/09 02:38:57;;;;;;;21.30;10.50;;;1.80;99.90;;;;;;5036158;28;20441;-61
2020/12/09 02:41:22;;;;;;;25.80;11.07;;;1.80;99.90;;;;;;5027727;28;20247;-61
2020/12/09 02:43:48;;;;;;;28.30;12.80;;;1.80;99.90;;;;;;5022577;28;20442;-61
2020/12/09 02:46:14;;;;;;;27.53;13.67;;;1.80;99.90;;;;;;5026111;28;20171;-61
2020/12/09 02:48:40;;;;;;;27.00;12.93;;;1.80;99.90;;;;;;5012574;28;20284;-60
2020/12/09 02:51:06;;;;;;;27.07;11.97;;;1.80;99.90;;;;;;5007800;28;20221;-61
2020/12/09 02:53:32;;;;;;;23.33;10.57;;;1.80;99.90;;;;;;5008530;28;21045;-61
2020/12/09 02:55:57;;;;;;;26.20;11.07;;;1.80;99.90;;;;;;5009500;28;20221;-61
2020/12/09 02:58:23;;;;;;;22.43;10.87;;;1.80;99.90;;;;;;5013078;28;20817;-60
2020/12/09 03:03:28;;;;;;;27.50;12.60;;;1.80;99.90;;;;;;5007759;28;20647;-65
2020/12/09 03:05:54;;;;;;;26.97;12.83;;;1.80;99.90;;;;;;5009467;28;20438;-61
2020/12/09 03:08:20;;;;;;;25.47;12.20;;;1.80;99.90;;;;;;5010373;28;20180;-62
2020/12/09 03:10:46;;;;;;;27.40;11.80;;;1.80;99.90;;;;;;4976216;28;20832;-64
2020/12/09 03:13:12;;;;;;;25.87;11.37;;;1.80;99.90;;;;;;4993556;28;20203;-62
2020/12/09 03:15:37;;;;;;;23.47;11.43;;;1.80;99.90;;;;;;4994139;28;20206;-61
2020/12/09 03:18:03;;;;;;;25.80;11.37;;;1.80;99.90;;;;;;4993438;28;20476;-61
2020/12/09 03:20:29;;;;;;;21.53;11.33;;;1.80;99.90;;;;;;5008783;28;20187;-61
2020/12/09 03:22:54;;;;;;;26.10;11.60;;;1.80;99.90;;;;;;4990396;28;20210;-62
2020/12/09 03:25:20;;;;;;;23.97;12.37;;;1.80;99.90;;;;;;4990165;28;20189;-62
2020/12/09 03:27:46;;;;;;;21.47;11.00;;;1.80;99.90;;;;;;5011042;28;20202;-61
2020/12/09 03:30:11;;;;;;;25.00;11.60;;;1.80;99.90;;;;;;5010422;28;20194;-61
2020/12/09 03:32:37;;;;;;;23.10;11.60;;;1.80;99.90;;;;;;4994642;28;20296;-62
2020/12/09 03:35:03;;;;;;;23.93;10.97;;;1.80;99.90;;;;;;4996171;28;20194;-62
2020/12/09 03:37:29;;;;;;;21.33;11.57;;;1.80;99.90;;;;;;4972259;28;20215;-63
2020/12/09 03:39:55;;;;;;;22.40;11.53;;;1.80;99.90;;;;;;4988853;28;20442;-64
2020/12/09 03:42:21;;;;;;;25.37;12.77;;;1.80;99.90;;;;;;5006772;28;20226;-62
2020/12/09 03:44:46;;;;;;;24.60;12.00;;;1.70;99.90;;;;;;4993499;28;20437;-63
2020/12/09 03:47:12;;;;;;;22.47;10.80;;;1.70;99.90;;;;;;4993142;28;20194;-62
2020/12/09 03:49:38;;;;;;;21.10;11.33;;;1.70;99.90;;;;;;5011379;28;20187;-61
2020/12/09 03:52:04;;;;;;;29.07;12.77;;;1.70;99.90;;;;;;4988224;28;20299;-62
2020/12/09 03:54:29;;;;;;;26.27;13.00;;;1.70;99.90;;;;;;4975338;28;20571;-66
2020/12/09 03:56:55;;;;;;;31.83;14.00;;;1.70;99.90;;;;;;4989711;28;20217;-62
2020/12/09 03:59:20;;;;;;;29.73;14.40;;;1.70;99.90;;;;;;5009335;28;20191;-64
2020/12/09 04:01:46;;;;;;;28.67;13.80;;;1.70;99.90;;;;;;4995325;28;20417;-61
2020/12/09 04:04:12;;;;;;;28.97;14.03;;;1.70;99.90;;;;;;4990822;28;20198;-62
2020/12/09 04:06:37;;;;;;;29.10;14.13;;;1.70;99.90;;;;;;4993292;28;20199;-62
2020/12/09 04:09:04;;;;;;;29.73;14.20;;;1.60;99.90;;;;;;4976925;28;20190;-62
2020/12/09 04:11:30;;;;;;;28.20;12.73;;;1.60;99.90;;;;;;5005997;28;20263;-62
2020/12/09 04:13:56;;;;;;;29.90;13.70;;;1.70;99.90;;;;;;4992546;28;20425;-62
2020/12/09 04:16:22;;;;;;;29.80;13.67;;;1.60;99.90;;;;;;4989991;28;20467;-62
2020/12/09 04:18:47;;;;;;;28.10;12.50;;;1.60;99.90;;;;;;4985055;28;20645;-62
2020/12/09 04:21:13;;;;;;;27.00;13.20;;;1.60;99.90;;;;;;5011250;28;20206;-63
2020/12/09 04:23:39;;;;;;;25.63;12.20;;;1.60;99.90;;;;;;5006955;28;20195;-62
2020/12/09 04:26:05;;;;;;;21.80;11.57;;;1.60;99.90;;;;;;4995616;28;20198;-62
2020/12/09 04:28:30;;;;;;;31.30;13.07;;;1.60;99.90;;;;;;5011965;28;20429;-62
2020/12/09 04:30:56;;;;;;;25.50;13.17;;;1.60;99.90;;;;;;4991018;28;20182;-62
2020/12/09 04:33:27;;;;;;;29.73;14.30;;;1.60;99.90;;;;;;5008584;28;20188;-63
2020/12/09 04:35:53;;;;;;;24.93;12.60;;;1.60;99.90;;;;;;4989712;28;20223;-63
2020/12/09 04:38:19;;;;;;;26.20;13.00;;;1.60;99.90;;;;;;4988018;28;20433;-62
2020/12/09 04:40:45;;;;;;;27.00;12.30;;;1.60;99.90;;;;;;5007114;28;20457;-61
2020/12/09 04:43:10;;;;;;;34.53;13.83;;;1.60;99.90;;;;;;5016947;28;20584;-62
2020/12/09 04:45:37;;;;;;;24.83;12.30;;;1.60;99.90;;;;;;4972497;28;20203;-62
2020/12/09 04:48:12;;;;;;;28.63;14.80;;;1.60;99.90;;;;;;4990838;28;20195;-62
2020/12/09 04:51:15;;;;;;;26.77;12.00;;;1.60;99.90;;;;;;4994881;28;20491;-63
2020/12/09 04:53:42;;;;;;;28.97;11.57;;;1.60;99.90;;;;;;4994110;28;20492;-62
2020/12/09 04:56:09;;;;;;;19.53;9.30;;;1.60;99.90;;;;;;5004447;28;20468;-64
2020/12/09 04:58:42;;;;;;;19.20;9.60;;;1.60;99.90;;;;;;5008311;28;20422;-62
2020/12/09 05:01:12;;;;;;;20.87;10.53;;;1.60;99.90;;;;;;5008581;28;20793;-62
2020/12/09 05:03:47;;;;;;;20.30;9.83;;;1.60;99.90;;;;;;5006623;28;21001;-59
2020/12/09 05:06:15;;;;;;;18.10;8.80;;;1.60;99.90;;;;;;5003907;28;20503;-62
2020/12/09 05:08:55;;;;;;;19.30;9.60;;;1.60;99.90;;;;;;5003050;28;20799;-64
2020/12/09 05:11:26;;;;;;;19.43;9.60;;;1.60;99.90;;;;;;4995597;28;20796;-65
2020/12/09 05:13:56;;;;;;;16.57;8.90;;;1.60;99.90;;;;;;5005923;28;20459;-59
2020/12/09 05:16:23;;;;;;;15.97;8.10;;;1.60;99.90;;;;;;5009587;28;20458;-60
2020/12/09 05:18:55;;;;;;;16.23;8.00;;;1.60;99.90;;;;;;5007206;28;20437;-63
2020/12/09 05:21:26;;;;;;;21.13;8.50;;;1.60;99.90;;;;;;5004525;28;20523;-62
2020/12/09 05:23:57;;;;;;;12.57;7.23;;;1.60;99.90;;;;;;4997087;28;20445;-61
2020/12/09 05:26:26;;;;;;;15.23;8.00;;;1.60;99.90;;;;;;5000065;28;20430;-65
2020/12/09 05:29:15;;;;;;;12.60;6.70;;;1.70;99.90;;;;;;5006840;28;20437;-62
2020/12/09 05:31:47;;;;;;;17.90;9.03;;;1.70;99.90;;;;;;5007751;28;20449;-64
2020/12/09 05:34:31;;;;;;;10.50;6.10;;;1.70;99.90;;;;;;4992549;28;21178;-59
2020/12/09 05:37:02;;;;;;;14.30;7.13;;;1.70;99.90;;;;;;4995188;28;20528;-58
2020/12/09 05:39:29;;;;;;;10.77;6.40;;;1.70;99.90;;;;;;4989110;28;20859;-60
2020/12/09 05:41:55;;;;;;;15.40;6.03;;;1.70;99.90;;;;;;5006311;28;21038;-62
2020/12/09 05:44:23;;;;;;;11.13;6.57;;;1.70;99.90;;;;;;5006804;28;21099;-63
2020/12/09 05:46:56;;;;;;;9.17;5.43;;;1.70;99.90;;;;;;4991557;28;20429;-63
2020/12/09 05:49:23;;;;;;;6.93;4.50;;;1.70;99.90;;;;;;4994578;28;20472;-62
2020/12/09 05:52:12;;;;;;;6.80;4.07;;;1.70;99.90;;;;;;4998513;28;20492;-60
2020/12/09 05:54:41;;;;;;;8.37;5.03;;;1.70;99.90;;;;;;5006096;28;20548;-61
2020/12/09 05:57:09;;;;;;;7.90;4.70;;;1.70;99.90;;;;;;4999807;28;20496;-60
2020/12/09 05:59:37;;;;;;;8.80;5.03;;;1.70;99.90;;;;;;5005255;28;20434;-63
2020/12/09 06:02:18;;;;;;;7.00;4.73;;;1.80;99.90;;;;;;5008562;28;20483;-64
2020/12/09 06:04:47;;;;;;;6.87;4.97;;;1.70;99.90;;;;;;5007632;28;20429;-63
2020/12/09 06:07:14;;;;;;;6.87;4.60;;;1.70;99.90;;;;;;4999449;28;20469;-60
2020/12/09 06:09:40;;;;;;;8.40;5.33;;;1.70;99.90;;;;;;5003461;28;20476;-61
2020/12/09 06:12:06;;;;;;;7.77;4.70;;;1.80;99.90;;;;;;5001077;28;20453;-63
2020/12/09 06:14:35;;;;;;;10.40;5.20;;;1.70;99.90;;;;;;5000583;28;20182;-61
2020/12/09 06:17:01;;;;;;;13.43;5.07;;;1.70;99.90;;;;;;4998645;28;20475;-60
2020/12/09 06:19:26;;;;;;;7.80;4.83;;;1.70;99.90;;;;;;5015910;28;20431;-61
2020/12/09 06:21:56;;;;;;;8.30;4.90;;;1.80;99.90;;;;;;4998192;28;20281;-62
2020/12/09 06:24:22;;;;;;;9.53;6.37;;;1.70;99.90;;;;;;5004274;28;20421;-64
2020/12/09 06:26:49;;;;;;;10.27;5.77;;;1.80;99.90;;;;;;4989833;28;20551;-61
2020/12/09 06:29:21;;;;;;;10.73;6.00;;;1.70;99.90;;;;;;5013069;28;20424;-61
2020/12/09 06:31:59;;;;;;;10.33;6.00;;;1.70;99.90;;;;;;5013690;28;20956;-60
2020/12/09 06:34:27;;;;;;;10.60;5.67;;;1.70;99.90;;;;;;5012637;28;20444;-61
2020/12/09 06:37:13;;;;;;;10.53;5.97;;;1.70;99.90;;;;;;5003293;28;20545;-64
2020/12/09 06:39:39;;;;;;;8.70;5.50;;;1.70;99.90;;;;;;5004289;28;20445;-61
2020/12/09 06:42:07;;;;;;;9.67;5.93;;;1.70;99.90;;;;;;5005819;28;20444;-61
2020/12/09 06:44:47;;;;;;;9.97;5.50;;;1.70;99.90;;;;;;5013688;28;20411;-60
2020/12/09 06:47:12;;;;;;;9.83;5.67;;;1.70;99.90;;;;;;5013473;28;20435;-62
2020/12/09 06:49:41;;;;;;;10.87;6.90;;;1.80;99.90;;;;;;5012586;28;20436;-61
2020/12/09 06:52:09;;;;;;;8.60;5.37;;;1.80;99.90;;;;;;4999487;28;20203;-62
2020/12/09 06:54:46;;;;;;;10.23;5.67;;;1.80;99.90;;;;;;5001722;28;20480;-61
2020/12/09 06:57:16;;;;;;;8.57;5.13;;;1.80;99.90;;;;;;4988683;28;20459;-61
2020/12/09 06:59:43;;;;;;;7.13;4.93;;;1.80;99.90;;;;;;5015073;28;20454;-59
2020/12/09 07:02:09;;;;;;;10.90;5.50;;;1.80;99.90;;;;;;5012215;28;20455;-61
2020/12/09 07:04:53;;;;;;;11.97;6.30;;;1.80;99.90;;;;;;4993802;28;20757;-63
2020/12/09 07:07:34;;;;;;;10.93;5.23;;;1.80;99.90;;;;;;5003441;28;20171;-61
2020/12/09 07:10:01;;;;;;;8.67;5.50;;;1.80;99.90;;;;;;5010512;28;20425;-64
2020/12/09 07:12:27;;;;;;;6.90;4.33;;;1.80;99.90;;;;;;4985830;28;20445;-63
2020/12/09 07:14:55;;;;;;;8.10;4.67;;;1.70;99.90;;;;;;4994801;28;20473;-62
2020/12/09 07:17:26;;;;;;;7.43;4.90;;;1.80;99.90;;;;;;5011852;28;20450;-60
2020/12/09 07:19:52;;;;;;;9.73;4.80;;;1.80;99.90;;;;;;5010260;28;20541;-60
2020/12/09 07:22:18;;;;;;;11.10;5.70;;;1.80;99.90;;;;;;4982635;28;20457;-60
2020/12/09 07:24:44;;;;;;;9.37;5.10;;;1.80;99.90;;;;;;5003146;28;20515;-60
2020/12/09 07:27:12;;;;;;;8.60;5.10;;;1.80;99.90;;;;;;4991105;28;20429;-60
2020/12/09 07:29:42;;;;;;;7.40;5.03;;;1.80;99.90;;;;;;5017115;28;20411;-60
2020/12/09 07:32:08;;;;;;;7.63;5.50;;;1.80;99.90;;;;;;5010929;28;20449;-61
2020/12/09 07:34:55;;;;;;;7.43;5.00;;;1.80;99.90;;;;;;5002187;28;20434;-60
2020/12/09 07:37:24;;;;;;;7.13;5.17;;;1.80;99.90;;;;;;4999476;28;20856;-60
2020/12/09 07:39:52;;;;;;;7.53;4.90;;;1.80;99.90;;;;;;5002228;28;20444;-64
2020/12/09 07:42:21;;;;;;;9.33;5.63;;;1.90;99.90;;;;;;5007094;28;20448;-59
2020/12/09 07:44:47;;;;;;;9.17;5.60;;;1.90;99.90;;;;;;4993796;28;20480;-60
2020/12/09 07:47:19;;;;;;;8.13;5.00;;;1.90;99.90;;;;;;5011543;28;20449;-60
2020/12/09 07:50:05;;;;;;;6.90;4.33;;;1.90;99.90;;;;;;5011083;28;20840;-59
2020/12/09 07:52:37;;;;;;;6.67;4.50;;;1.80;99.90;;;;;;5002721;28;20480;-62
2020/12/09 07:55:13;;;;;;;6.50;4.10;;;1.80;99.90;;;;;;5007902;28;20949;-60
2020/12/09 07:57:40;;;;;;;6.97;4.67;;;1.80;99.90;;;;;;5017111;28;21007;-60
2020/12/09 08:00:14;;;;;;;7.30;4.50;;;1.80;99.90;;;;;;5013356;28;20471;-61
2020/12/09 08:02:41;;;;;;;6.73;4.70;;;1.80;99.90;;;;;;4985784;28;20862;-60
2020/12/09 08:05:08;;;;;;;6.27;4.10;;;1.80;99.90;;;;;;4992464;28;20456;-60
2020/12/09 08:07:34;;;;;;;6.00;4.47;;;1.80;99.90;;;;;;5007940;28;20794;-62
2020/12/09 08:10:13;;;;;;;7.50;4.80;;;1.90;99.90;;;;;;4992277;28;20438;-58
2020/12/09 08:12:41;;;;;;;7.63;4.67;;;1.90;99.90;;;;;;5010145;28;20645;-60
2020/12/09 08:15:08;;;;;;;5.27;4.20;;;1.90;99.90;;;;;;5010917;28;21010;-60
2020/12/09 08:17:35;;;;;;;6.60;4.63;;;1.90;99.90;;;;;;5012435;28;20615;-63
2020/12/09 08:20:06;;;;;;;6.40;3.87;;;1.90;99.90;;;;;;5009649;28;20432;-61
2020/12/09 08:22:32;;;;;;;6.93;4.63;;;1.80;99.90;;;;;;5008366;28;20457;-60
2020/12/09 08:25:08;;;;;;;6.83;4.57;;;1.80;99.90;;;;;;5013492;28;20425;-60
2020/12/09 08:27:45;;;;;;;5.20;4.20;;;1.80;99.90;;;;;;5015653;28;20432;-60
2020/12/09 08:30:16;;;;;;;9.30;5.40;;;1.80;99.90;;;;;;4999316;28;20517;-61
2020/12/09 08:33:02;;;;;;;9.67;5.80;;;1.90;99.90;;;;;;5009613;28;20461;-59
2020/12/09 08:35:40;;;;;;;7.43;5.10;;;1.90;99.90;;;;;;5007520;28;20446;-61
2020/12/09 08:38:06;;;;;;;6.30;5.10;;;1.90;99.90;;;;;;5004457;28;20498;-60
2020/12/09 08:40:32;;;;;;;10.60;6.87;;;1.90;99.90;;;;;;4989598;28;20470;-63
2020/12/09 08:43:01;;;;;;;10.57;6.40;;;1.90;99.90;;;;;;5011277;28;21003;-60
2020/12/09 08:45:27;;;;;;;9.70;6.10;;;1.90;99.90;;;;;;5011195;28;20176;-60
2020/12/09 08:47:53;;;;;;;9.50;6.10;;;1.90;99.90;;;;;;5010420;28;20434;-61
2020/12/09 08:50:20;;;;;;;9.50;6.30;;;1.90;99.90;;;;;;5011025;28;20456;-63
2020/12/09 08:52:46;;;;;;;10.17;6.00;;;1.90;99.90;;;;;;5010677;28;20973;-61
2020/12/09 08:55:11;;;;;;;8.67;4.73;;;2.00;99.90;;;;;;5005372;28;20437;-62
2020/12/09 08:57:37;;;;;;;7.70;5.77;;;2.00;99.90;;;;;;5006289;28;20215;-62
2020/12/09 09:00:07;;;;;;;7.40;5.87;;;2.00;99.90;;;;;;5010517;28;20207;-63
2020/12/09 09:02:33;;;;;;;9.00;6.37;;;2.00;99.90;;;;;;4986134;28;20230;-62
2020/12/09 09:04:59;;;;;;;8.83;6.67;;;2.00;99.90;;;;;;5024285;22;20457;-63
2020/12/09 09:07:26;;;;;;;10.13;7.30;;;2.00;99.90;;;;;;5063822;28;20443;-62
2020/12/09 09:09:51;;;;;;;13.80;8.97;;;2.10;99.90;;;;;;5073381;28;20415;-61
2020/12/09 09:12:17;;;;;;;13.97;8.00;;;2.10;99.90;;;;;;5061219;28;20483;-60
2020/12/09 09:14:43;;;;;;;9.93;6.90;;;2.10;99.90;;;;;;5063508;28;20691;-60
2020/12/09 09:17:09;;;;;;;13.63;7.80;;;2.20;99.90;;;;;;5044334;28;20208;-61
2020/12/09 09:19:35;;;;;;;9.27;5.77;;;2.20;99.90;;;;;;5067762;28;20409;-60
2020/12/09 09:22:01;;;;;;;8.20;5.30;;;2.20;99.90;;;;;;5060980;28;20489;-63
2020/12/09 09:24:27;;;;;;;6.30;5.33;;;2.20;99.90;;;;;;5043472;28;20197;-63
2020/12/09 09:26:53;;;;;;;8.63;5.70;;;2.20;99.90;;;;;;5046323;28;20529;-63
2020/12/09 09:29:19;;;;;;;8.10;5.80;;;2.20;99.90;;;;;;5070510;28;20194;-63
2020/12/09 09:31:45;;;;;;;6.27;4.97;;;2.20;99.90;;;;;;5051200;28;20741;-63
2020/12/09 09:34:11;;;;;;;7.30;4.83;;;2.20;99.90;;;;;;5047240;28;20196;-63
2020/12/09 09:36:38;;;;;;;5.20;4.20;;;2.20;99.90;;;;;;5051603;28;20574;-63
2020/12/09 09:39:03;;;;;;;4.97;4.23;;;2.20;99.90;;;;;;5060948;28;20673;-63
2020/12/09 09:41:29;;;;;;;6.27;4.53;;;2.20;99.90;;;;;;5068689;28;20499;-63
2020/12/09 09:43:55;;;;;;;4.93;4.23;;;2.10;99.90;;;;;;5039453;28;20522;-63
2020/12/09 09:46:22;;;;;;;5.20;4.20;;;2.10;99.90;;;;;;5066262;28;20211;-63
2020/12/09 09:48:48;;;;;;;5.77;3.73;;;2.10;99.90;;;;;;5058240;28;20255;-63
2020/12/09 09:51:15;;;;;;;6.50;4.07;;;2.10;99.90;;;;;;5079238;28;20455;-63
2020/12/09 09:53:41;;;;;;;5.40;4.13;;;2.10;99.90;;;;;;5048545;28;20491;-63
2020/12/09 09:56:07;;;;;;;5.00;3.97;;;2.20;99.90;;;;;;5051705;28;20875;-63
2020/12/09 09:58:33;;;;;;;3.97;3.50;;;2.10;99.90;;;;;;5049832;28;20209;-63
2020/12/09 10:00:59;;;;;;;6.17;3.67;;;2.20;99.90;;;;;;5056324;28;20415;-63
2020/12/09 10:03:24;;;;;;;3.37;3.03;;;2.20;99.90;;;;;;5054192;28;20500;-63
2020/12/09 10:05:52;;;;;;;4.83;3.77;;;2.10;99.90;;;;;;5054277;28;20240;-63
2020/12/09 10:08:18;;;;;;;5.47;4.43;;;2.20;99.90;;;;;;5057177;28;20173;-64
2020/12/09 10:10:44;;;;;;;4.40;3.50;;;2.20;99.90;;;;;;5076347;28;20427;-66
2020/12/09 10:13:11;;;;;;;4.13;3.00;;;2.20;99.90;;;;;;5076402;28;20423;-63
2020/12/09 10:15:37;;;;;;;5.10;3.40;;;2.20;99.90;;;;;;5069669;28;20473;-63
2020/12/09 10:18:03;;;;;;;4.73;3.80;;;2.30;99.90;;;;;;5077107;28;20465;-63
2020/12/09 10:20:28;;;;;;;3.23;2.93;;;2.30;99.90;;;;;;5053413;28;20423;-63
2020/12/09 10:22:54;;;;;;;3.50;3.00;;;2.30;99.90;;;;;;5049980;28;20272;-63
2020/12/09 10:25:22;;;;;;;4.20;3.80;;;2.30;99.90;;;;;;5056606;28;20710;-63
2020/12/09 10:27:48;;;;;;;4.40;3.50;;;2.40;99.90;;;;;;5058220;28;20203;-63
2020/12/09 10:30:14;;;;;;;5.07;3.67;;;2.40;99.90;;;;;;5047000;28;20411;-63
2020/12/09 10:32:39;;;;;;;3.70;3.37;;;2.40;99.90;;;;;;5053205;28;20205;-62
2020/12/09 10:35:05;;;;;;;3.37;2.93;;;2.40;99.90;;;;;;5069277;28;20550;-62
2020/12/09 10:37:31;;;;;;;5.00;3.70;;;2.40;99.90;;;;;;5047249;28;20213;-63
2020/12/09 10:39:57;;;;;;;4.87;3.23;;;2.40;99.90;;;;;;5047893;28;20250;-63
2020/12/09 10:42:23;;;;;;;4.90;3.97;;;2.40;99.90;;;;;;5049686;28;20832;-63
2020/12/09 10:44:50;;;;;;;4.80;4.30;;;2.30;99.90;;;;;;5044889;28;20270;-63
2020/12/09 10:47:15;;;;;;;4.50;3.90;;;2.40;99.90;;;;;;5040049;28;20420;-62
2020/12/09 10:49:44;;;;;;;6.17;3.90;;;2.30;99.90;;;;;;5053493;28;20424;-63
2020/12/09 10:52:13;;;;;;;4.00;3.60;;;2.30;99.90;;;;;;5040200;28;20196;-63
2020/12/09 10:54:39;;;;;;;4.30;3.90;;;2.30;99.90;;;;;;5048866;28;20443;-63
2020/12/09 10:57:05;;;;;;;5.17;4.23;;;2.30;99.90;;;;;;5048164;28;20462;-63
2020/12/09 10:59:31;;;;;;;5.40;4.37;;;2.30;99.90;;;;;;5064926;28;20428;-63
2020/12/09 11:01:57;;;;;;;5.13;3.87;;;2.20;99.90;;;;;;5065471;28;20166;-63
2020/12/09 11:04:23;;;;;;;4.97;3.97;;;2.20;99.90;;;;;;5050239;28;20791;-64
2020/12/09 11:06:49;;;;;;;4.23;3.83;;;2.20;99.90;;;;;;5049415;28;20484;-64
2020/12/09 11:09:15;;;;;;;4.17;3.33;;;2.20;99.90;;;;;;5067714;28;20425;-62
2020/12/09 11:11:45;;;;;;;3.90;3.10;;;2.20;99.90;;;;;;5061331;28;20200;-62
2020/12/09 11:14:16;;;;;;;3.83;3.33;;;2.10;99.90;;;;;;5086564;28;20189;-62
2020/12/09 11:16:42;;;;;;;4.57;4.00;;;2.10;99.90;;;;;;5054236;28;20476;-62
2020/12/09 11:19:08;;;;;;;5.10;3.20;;;2.10;99.90;;;;;;5069189;28;20414;-61
2020/12/09 11:21:34;;;;;;;6.10;4.20;;;2.10;99.90;;;;;;5076095;28;20421;-62
2020/12/09 11:24:00;;;;;;;5.23;3.30;;;2.10;99.90;;;;;;5072705;28;20790;-62
2020/12/09 11:26:29;;;;;;;5.90;3.57;;;2.10;99.90;;;;;;5073595;28;21007;-62
2020/12/09 11:28:55;;;;;;;3.77;3.30;;;2.20;99.90;;;;;;5074868;28;20190;-62
2020/12/09 11:31:26;;;;;;;3.20;2.90;;;2.20;99.90;;;;;;5051899;28;20800;-62
2020/12/09 11:33:53;;;;;;;4.50;3.60;;;2.20;99.90;;;;;;5068244;28;20863;-61
2020/12/09 11:36:24;;;;;;;4.70;3.70;;;2.20;99.90;;;;;;5063889;28;20468;-62
2020/12/09 11:38:51;;;;;;;4.30;3.37;;;2.20;99.90;;;;;;5041375;28;20797;-61
2020/12/09 11:41:25;;;;;;;4.47;3.30;;;2.20;99.90;;;;;;5065249;28;20463;-61
2020/12/09 11:43:52;;;;;;;4.73;3.87;;;2.20;99.90;;;;;;5073660;28;20422;-62
2020/12/09 11:46:17;;;;;;;3.73;3.27;;;2.10;99.90;;;;;;5061269;28;20797;-61
2020/12/09 11:48:43;;;;;;;4.30;3.30;;;2.20;99.90;;;;;;5067558;28;20445;-61
2020/12/09 11:51:13;;;;;;;5.20;3.43;;;2.20;99.90;;;;;;5050828;28;20765;-61
2020/12/09 11:53:39;;;;;;;3.20;2.87;;;2.10;99.90;;;;;;5046004;28;20428;-61
2020/12/09 11:56:04;;;;;;;4.53;3.43;;;2.10;99.90;;;;;;5054286;28;20559;-61
2020/12/09 11:58:30;;;;;;;8.90;6.70;;;2.10;99.90;;;;;;5091641;28;20182;-61
2020/12/09 12:00:56;;;;;;;5.20;3.97;;;2.10;99.90;;;;;;5050851;28;20222;-61
2020/12/09 12:03:21;;;;;;;3.47;2.80;;;2.00;99.90;;;;;;5050122;28;20268;-61
2020/12/09 12:05:52;;;;;;;3.43;3.13;;;2.10;99.90;;;;;;5066227;28;20220;-61
2020/12/09 12:08:17;;;;;;;3.53;3.20;;;2.00;99.90;;;;;;5052311;28;20654;-61
2020/12/09 12:10:43;;;;;;;4.50;3.17;;;2.10;99.90;;;;;;5049259;28;20493;-61
2020/12/09 12:13:09;;;;;;;4.13;2.93;;;2.10;99.90;;;;;;5070814;28;20526;-61
2020/12/09 12:15:34;;;;;;;5.00;3.27;;;2.00;99.90;;;;;;5067961;28;20509;-62
2020/12/09 12:18:00;;;;;;;5.10;3.67;;;2.00;99.90;;;;;;5048692;28;20520;-60
2020/12/09 12:20:25;;;;;;;8.93;3.40;;;2.00;99.90;;;;;;5062277;28;20643;-61
2020/12/09 12:22:52;;;;;;;5.50;3.20;;;2.00;99.90;;;;;;5040089;28;20189;-62
2020/12/09 12:25:17;;;;;;;4.40;3.47;;;2.00;99.90;;;;;;5065666;28;20203;-62
2020/12/09 12:27:44;;;;;;;4.07;3.20;;;2.10;99.90;;;;;;5028524;28;20441;-61
2020/12/09 12:30:11;;;;;;;4.80;2.90;;;2.10;99.90;;;;;;5073368;28;20162;-62
2020/12/09 12:32:38;;;;;;;4.90;3.50;;;2.10;99.90;;;;;;5060083;28;20847;-61
2020/12/09 12:35:05;;;;;;;4.53;3.53;;;2.10;99.90;;;;;;5069855;28;20447;-61
2020/12/09 12:37:32;;;;;;;4.47;3.50;;;2.20;99.90;;;;;;5058196;28;20456;-62
2020/12/09 12:39:57;;;;;;;3.40;3.10;;;2.10;99.90;;;;;;5068423;28;20422;-62
2020/12/09 12:42:23;;;;;;;4.70;3.90;;;2.10;99.90;;;;;;5061277;28;20949;-62
2020/12/09 12:44:49;;;;;;;5.13;4.63;;;2.10;99.90;;;;;;5055097;28;20182;-62
2020/12/09 12:47:15;;;;;;;4.13;3.70;;;2.10;99.90;;;;;;5070476;28;20454;-62
2020/12/09 12:49:43;;;;;;;3.67;3.20;;;2.10;99.90;;;;;;5066377;28;20620;-62
2020/12/09 12:52:09;;;;;;;4.23;2.97;;;2.10;99.90;;;;;;5057269;28;20193;-63
2020/12/09 12:54:35;;;;;;;3.70;3.40;;;2.10;99.90;;;;;;5047504;28;20477;-63
2020/12/09 12:57:01;;;;;;;4.77;3.80;;;2.10;99.90;;;;;;5064402;28;20478;-63